sensor_id;sensor_type;location;lat;lon;timestamp;pressure;altitude;pressure_sealevel;temperature;humidity
76592;BME280;65481;47.600;19.682;2024-02-26T00:03:13;99519.59;;;9.92;100.00
76592;BME280;65481;47.600;19.682;2024-02-26T00:08:13;99510.81;;;9.86;100.00
76592;BME280;65481;47.600;19.682;2024-02-26T00:13:14;99513.84;;;9.78;100.00
76592;BME280;65481;47.600;19.682;2024-02-26T00:18:14;99499.19;;;9.65;100.00
76592;BME280;65481;47.600;19.682;2024-02-26T00:23:15;99493.09;;;9.64;100.00
76592;BME280;65481;47.600;19.682;2024-02-26T00:28:16;99486.63;;;9.72;100.00
76592;BME280;65481;47.600;19.682;2024-02-26T00:33:17;99489.91;;;9.79;100.00
76592;BME280;65481;47.600;19.682;2024-02-26T00:38:17;99482.50;;;9.76;100.00
76592;BME280;65481;47.600;19.682;2024-02-26T00:43:18;99468.44;;;9.70;100.00
76592;BME280;65481;47.600;19.682;2024-02-26T00:48:18;99468.91;;;9.67;100.00
76592;BME280;65481;47.600;19.682;2024-02-26T00:53:19;99474.19;;;9.67;100.00
76592;BME280;65481;47.600;19.682;2024-02-26T00:58:19;99459.28;;;9.56;100.00
76592;BME280;65481;47.600;19.682;2024-02-26T01:03:20;99447.94;;;9.55;100.00
76592;BME280;65481;47.600;19.682;2024-02-26T01:08:20;99446.28;;;9.49;100.00
76592;BME280;65481;47.600;19.682;2024-02-26T01:13:21;99452.78;;;9.47;100.00
76592;BME280;65481;47.600;19.682;2024-02-26T01:18:21;99453.34;;;9.49;100.00
76592;BME280;65481;47.600;19.682;2024-02-26T01:23:23;99453.03;;;9.45;100.00
76592;BME280;65481;47.600;19.682;2024-02-26T01:28:24;99453.03;;;9.45;100.00
76592;BME280;65481;47.600;19.682;2024-02-26T01:33:25;99444.28;;;9.39;100.00
76592;BME280;65481;47.600;19.682;2024-02-26T01:38:26;99439.31;;;9.43;100.00
76592;BME280;65481;47.600;19.682;2024-02-26T01:43:27;99437.94;;;9.40;100.00
76592;BME280;65481;47.600;19.682;2024-02-26T01:48:28;99429.81;;;9.42;100.00
76592;BME280;65481;47.600;19.682;2024-02-26T01:53:28;99421.38;;;9.40;100.00
76592;BME280;65481;47.600;19.682;2024-02-26T01:58:30;99421.13;;;9.42;100.00
76592;BME280;65481;47.600;19.682;2024-02-26T02:03:31;99423.22;;;9.39;100.00
76592;BME280;65481;47.600;19.682;2024-02-26T02:08:31;99413.47;;;9.40;100.00
76592;BME280;65481;47.600;19.682;2024-02-26T02:13:32;99419.44;;;9.35;100.00
76592;BME280;65481;47.600;19.682;2024-02-26T02:18:33;99419.44;;;9.35;100.00
76592;BME280;65481;47.600;19.682;2024-02-26T02:23:33;99416.56;;;9.37;100.00
76592;BME280;65481;47.600;19.682;2024-02-26T02:28:34;99431.09;;;9.39;100.00
76592;BME280;65481;47.600;19.682;2024-02-26T02:33:35;99432.84;;;9.51;100.00
76592;BME280;65481;47.600;19.682;2024-02-26T02:38:37;99427.03;;;9.49;100.00
76592;BME280;65481;47.600;19.682;2024-02-26T02:43:37;99421.50;;;9.50;100.00
76592;BME280;65481;47.600;19.682;2024-02-26T02:48:38;99422.00;;;9.47;100.00
76592;BME280;65481;47.600;19.682;2024-02-26T02:53:38;99433.75;;;9.39;100.00
76592;BME280;65481;47.600;19.682;2024-02-26T02:58:39;99426.78;;;9.33;100.00
76592;BME280;65481;47.600;19.682;2024-02-26T03:03:39;99426.22;;;9.31;100.00
76592;BME280;65481;47.600;19.682;2024-02-26T03:08:39;99418.81;;;9.28;100.00
76592;BME280;65481;47.600;19.682;2024-02-26T03:13:42;99411.47;;;9.30;100.00
76592;BME280;65481;47.600;19.682;2024-02-26T03:18:42;99410.13;;;9.28;100.00
76592;BME280;65481;47.600;19.682;2024-02-26T03:23:43;99417.53;;;9.31;100.00
76592;BME280;65481;47.600;19.682;2024-02-26T03:28:43;99412.19;;;9.26;100.00
76592;BME280;65481;47.600;19.682;2024-02-26T03:33:44;99404.50;;;9.24;100.00
76592;BME280;65481;47.600;19.682;2024-02-26T03:38:44;99394.53;;;9.26;100.00
76592;BME280;65481;47.600;19.682;2024-02-26T03:43:45;99397.44;;;9.24;100.00
76592;BME280;65481;47.600;19.682;2024-02-26T03:48:45;99401.97;;;9.29;100.00
76592;BME280;65481;47.600;19.682;2024-02-26T03:53:46;99393.50;;;9.27;100.00
76592;BME280;65481;47.600;19.682;2024-02-26T03:58:46;99392.94;;;9.25;100.00
76592;BME280;65481;47.600;19.682;2024-02-26T04:03:50;99385.88;;;9.26;100.00
76592;BME280;65481;47.600;19.682;2024-02-26T04:08:50;99393.84;;;9.31;100.00
76592;BME280;65481;47.600;19.682;2024-02-26T04:13:51;99401.50;;;9.32;100.00
76592;BME280;65481;47.600;19.682;2024-02-26T04:18:52;99387.78;;;9.30;100.00
76592;BME280;65481;47.600;19.682;2024-02-26T04:23:53;99389.06;;;9.28;100.00
76592;BME280;65481;47.600;19.682;2024-02-26T04:29:00;99390.31;;;9.25;100.00
76592;BME280;65481;47.600;19.682;2024-02-26T04:34:01;99392.38;;;9.23;100.00
76592;BME280;65481;47.600;19.682;2024-02-26T04:39:01;99386.66;;;9.26;100.00
76592;BME280;65481;47.600;19.682;2024-02-26T04:44:03;99382.75;;;9.29;100.00
76592;BME280;65481;47.600;19.682;2024-02-26T04:49:03;99390.03;;;9.38;100.00
76592;BME280;65481;47.600;19.682;2024-02-26T04:54:04;99391.91;;;9.43;100.00
76592;BME280;65481;47.600;19.682;2024-02-26T04:59:04;99396.72;;;9.46;100.00
76592;BME280;65481;47.600;19.682;2024-02-26T05:04:05;99401.16;;;9.46;100.00
76592;BME280;65481;47.600;19.682;2024-02-26T05:09:05;99390.06;;;9.44;100.00
76592;BME280;65481;47.600;19.682;2024-02-26T05:14:06;99386.00;;;9.36;100.00
76592;BME280;65481;47.600;19.682;2024-02-26T05:19:06;99397.34;;;9.36;100.00
76592;BME280;65481;47.600;19.682;2024-02-26T05:24:06;99408.44;;;9.38;100.00
76592;BME280;65481;47.600;19.682;2024-02-26T05:29:08;99411.88;;;9.39;100.00
76592;BME280;65481;47.600;19.682;2024-02-26T05:34:08;99394.16;;;9.34;100.00
76592;BME280;65481;47.600;19.682;2024-02-26T05:39:09;99394.94;;;9.35;100.00
76592;BME280;65481;47.600;19.682;2024-02-26T05:44:11;99390.66;;;9.29;100.00
76592;BME280;65481;47.600;19.682;2024-02-26T05:49:12;99397.81;;;9.33;100.00
76592;BME280;65481;47.600;19.682;2024-02-26T05:54:12;99416.00;;;9.35;100.00
76592;BME280;65481;47.600;19.682;2024-02-26T05:59:14;99407.53;;;9.33;100.00
76592;BME280;65481;47.600;19.682;2024-02-26T06:04:16;99417.75;;;9.29;100.00
76592;BME280;65481;47.600;19.682;2024-02-26T06:09:17;99420.19;;;9.31;100.00
76592;BME280;65481;47.600;19.682;2024-02-26T06:14:18;99429.16;;;9.35;100.00
76592;BME280;65481;47.600;19.682;2024-02-26T06:19:19;99420.00;;;9.37;100.00
76592;BME280;65481;47.600;19.682;2024-02-26T06:24:20;99425.03;;;9.39;100.00
76592;BME280;65481;47.600;19.682;2024-02-26T06:29:22;99425.34;;;9.43;100.00
76592;BME280;65481;47.600;19.682;2024-02-26T06:34:22;99414.41;;;9.51;100.00
76592;BME280;65481;47.600;19.682;2024-02-26T06:39:25;99425.09;;;9.61;100.00
76592;BME280;65481;47.600;19.682;2024-02-26T06:44:25;99437.41;;;9.73;100.00
76592;BME280;65481;47.600;19.682;2024-02-26T06:49:27;99446.06;;;9.90;100.00
76592;BME280;65481;47.600;19.682;2024-02-26T06:54:28;99444.69;;;9.88;100.00
76592;BME280;65481;47.600;19.682;2024-02-26T06:59:28;99439.28;;;9.94;100.00
76592;BME280;65481;47.600;19.682;2024-02-26T07:04:29;99442.31;;;10.03;100.00
76592;BME280;65481;47.600;19.682;2024-02-26T07:09:31;99440.16;;;10.00;100.00
76592;BME280;65481;47.600;19.682;2024-02-26T07:14:31;99439.16;;;10.06;100.00
76592;BME280;65481;47.600;19.682;2024-02-26T07:19:33;99444.28;;;10.13;100.00
76592;BME280;65481;47.600;19.682;2024-02-26T07:24:33;99450.41;;;10.19;100.00
76592;BME280;65481;47.600;19.682;2024-02-26T07:29:34;99446.53;;;10.26;100.00
76592;BME280;65481;47.600;19.682;2024-02-26T07:34:34;99441.56;;;10.30;100.00
76592;BME280;65481;47.600;19.682;2024-02-26T07:39:35;99453.06;;;10.41;100.00
76592;BME280;65481;47.600;19.682;2024-02-26T07:44:37;99444.22;;;10.52;100.00
76592;BME280;65481;47.600;19.682;2024-02-26T07:49:37;99452.50;;;10.61;100.00
76592;BME280;65481;47.600;19.682;2024-02-26T07:54:38;99448.19;;;10.77;100.00
76592;BME280;65481;47.600;19.682;2024-02-26T07:59:40;99448.66;;;10.96;100.00
76592;BME280;65481;47.600;19.682;2024-02-26T08:04:40;99454.72;;;10.97;100.00
76592;BME280;65481;47.600;19.682;2024-02-26T08:09:41;99457.56;;;11.17;100.00
76592;BME280;65481;47.600;19.682;2024-02-26T08:14:41;99461.38;;;11.32;100.00
76592;BME280;65481;47.600;19.682;2024-02-26T08:19:44;99449.31;;;11.41;100.00
76592;BME280;65481;47.600;19.682;2024-02-26T08:24:44;99464.44;;;11.51;100.00
76592;BME280;65481;47.600;19.682;2024-02-26T08:29:45;99464.31;;;11.68;100.00
76592;BME280;65481;47.600;19.682;2024-02-26T08:34:45;99442.78;;;11.92;100.00
76592;BME280;65481;47.600;19.682;2024-02-26T08:39:46;99454.53;;;12.06;100.00
76592;BME280;65481;47.600;19.682;2024-02-26T08:44:47;99459.00;;;12.59;100.00
76592;BME280;65481;47.600;19.682;2024-02-26T08:49:48;99446.59;;;12.80;100.00
76592;BME280;65481;47.600;19.682;2024-02-26T08:54:49;99453.19;;;12.67;100.00
76592;BME280;65481;47.600;19.682;2024-02-26T08:59:50;99462.16;;;12.56;100.00
76592;BME280;65481;47.600;19.682;2024-02-26T09:04:50;99461.84;;;12.47;100.00
76592;BME280;65481;47.600;19.682;2024-02-26T09:09:54;99469.00;;;12.47;100.00
76592;BME280;65481;47.600;19.682;2024-02-26T09:14:54;99471.06;;;12.29;100.00
76592;BME280;65481;47.600;19.682;2024-02-26T09:19:56;99475.53;;;12.29;100.00
76592;BME280;65481;47.600;19.682;2024-02-26T09:24:56;99476.84;;;12.26;100.00
76592;BME280;65481;47.600;19.682;2024-02-26T09:29:57;99480.03;;;12.28;100.00
76592;BME280;65481;47.600;19.682;2024-02-26T09:34:57;99474.22;;;12.31;100.00
76592;BME280;65481;47.600;19.682;2024-02-26T09:39:58;99481.91;;;12.33;100.00
76592;BME280;65481;47.600;19.682;2024-02-26T09:45:00;99484.13;;;12.56;100.00
76592;BME280;65481;47.600;19.682;2024-02-26T09:50:06;99475.41;;;12.61;100.00
76592;BME280;65481;47.600;19.682;2024-02-26T09:55:09;99485.47;;;12.64;100.00
76592;BME280;65481;47.600;19.682;2024-02-26T10:00:15;99481.78;;;12.65;100.00
76592;BME280;65481;47.600;19.682;2024-02-26T10:05:18;99484.16;;;12.67;100.00
76592;BME280;65481;47.600;19.682;2024-02-26T10:10:22;99491.03;;;12.68;100.00
76592;BME280;65481;47.600;19.682;2024-02-26T10:15:23;99490.56;;;12.76;100.00
76592;BME280;65481;47.600;19.682;2024-02-26T10:20:23;99486.28;;;12.70;100.00
76592;BME280;65481;47.600;19.682;2024-02-26T10:25:26;99491.31;;;12.77;100.00
76592;BME280;65481;47.600;19.682;2024-02-26T10:30:27;99490.03;;;12.84;100.00
76592;BME280;65481;47.600;19.682;2024-02-26T10:35:28;99486.34;;;13.01;100.00
76592;BME280;65481;47.600;19.682;2024-02-26T10:40:28;99491.41;;;13.02;100.00
76592;BME280;65481;47.600;19.682;2024-02-26T10:45:29;99494.34;;;13.11;100.00
76592;BME280;65481;47.600;19.682;2024-02-26T10:50:29;99485.88;;;13.14;100.00
76592;BME280;65481;47.600;19.682;2024-02-26T10:55:31;99477.13;;;13.14;100.00
76592;BME280;65481;47.600;19.682;2024-02-26T11:00:33;99481.09;;;13.16;100.00
76592;BME280;65481;47.600;19.682;2024-02-26T11:05:34;99471.03;;;13.34;100.00
76592;BME280;65481;47.600;19.682;2024-02-26T11:10:36;99464.97;;;13.44;100.00
76592;BME280;65481;47.600;19.682;2024-02-26T11:15:37;99456.50;;;13.52;100.00
76592;BME280;65481;47.600;19.682;2024-02-26T11:20:38;99445.56;;;13.90;100.00
76592;BME280;65481;47.600;19.682;2024-02-26T11:25:41;99446.56;;;14.20;100.00
76592;BME280;65481;47.600;19.682;2024-02-26T11:30:44;99449.31;;;14.60;100.00
76592;BME280;65481;47.600;19.682;2024-02-26T11:35:45;99445.84;;;15.09;100.00
76592;BME280;65481;47.600;19.682;2024-02-26T11:40:46;99443.06;;;14.85;100.00
76592;BME280;65481;47.600;19.682;2024-02-26T11:45:48;99440.72;;;14.83;100.00
76592;BME280;65481;47.600;19.682;2024-02-26T11:50:54;99436.44;;;14.88;100.00
76592;BME280;65481;47.600;19.682;2024-02-26T12:06:51;99430.75;;;16.80;100.00
76592;BME280;65481;47.600;19.682;2024-02-26T12:11:54;99417.47;;;16.17;100.00
76592;BME280;65481;47.600;19.682;2024-02-26T12:16:55;99428.13;;;16.37;100.00
76592;BME280;65481;47.600;19.682;2024-02-26T12:21:56;99430.00;;;16.36;100.00
76592;BME280;65481;47.600;19.682;2024-02-26T12:26:57;99442.66;;;15.71;100.00
76592;BME280;65481;47.600;19.682;2024-02-26T12:31:58;99435.44;;;15.77;100.00
76592;BME280;65481;47.600;19.682;2024-02-26T12:37:00;99438.91;;;15.48;100.00
76592;BME280;65481;47.600;19.682;2024-02-26T12:42:01;99440.00;;;15.42;100.00
76592;BME280;65481;47.600;19.682;2024-02-26T12:47:04;99435.84;;;15.31;100.00
76592;BME280;65481;47.600;19.682;2024-02-26T12:52:05;99438.56;;;15.25;100.00
76592;BME280;65481;47.600;19.682;2024-02-26T12:57:06;99443.34;;;15.23;100.00
76592;BME280;65481;47.600;19.682;2024-02-26T13:02:08;99441.50;;;15.24;100.00
76592;BME280;65481;47.600;19.682;2024-02-26T13:07:09;99442.47;;;15.33;100.00
76592;BME280;65481;47.600;19.682;2024-02-26T13:12:09;99443.75;;;15.41;100.00
76592;BME280;65481;47.600;19.682;2024-02-26T13:17:10;99438.59;;;15.50;100.00
76592;BME280;65481;47.600;19.682;2024-02-26T13:22:11;99436.66;;;15.60;100.00
76592;BME280;65481;47.600;19.682;2024-02-26T13:27:11;99437.38;;;15.66;100.00
76592;BME280;65481;47.600;19.682;2024-02-26T13:32:11;99436.31;;;15.67;100.00
76592;BME280;65481;47.600;19.682;2024-02-26T13:37:13;99434.22;;;15.64;100.00
76592;BME280;65481;47.600;19.682;2024-02-26T13:42:13;99436.44;;;15.57;100.00
76592;BME280;65481;47.600;19.682;2024-02-26T13:47:14;99435.81;;;15.65;100.00
76592;BME280;65481;47.600;19.682;2024-02-26T13:52:14;99436.63;;;15.66;100.00
76592;BME280;65481;47.600;19.682;2024-02-26T13:57:15;99436.28;;;15.72;100.00
76592;BME280;65481;47.600;19.682;2024-02-26T14:02:16;99432.44;;;15.84;100.00
76592;BME280;65481;47.600;19.682;2024-02-26T14:07:17;99430.72;;;16.23;100.00
76592;BME280;65481;47.600;19.682;2024-02-26T14:12:17;99434.72;;;16.20;100.00
76592;BME280;65481;47.600;19.682;2024-02-26T14:17:18;99432.06;;;15.96;100.00
76592;BME280;65481;47.600;19.682;2024-02-26T14:22:18;99438.91;;;15.78;100.00
76592;BME280;65481;47.600;19.682;2024-02-26T14:27:19;99448.72;;;15.77;100.00
76592;BME280;65481;47.600;19.682;2024-02-26T14:32:22;99442.06;;;15.50;100.00
76592;BME280;65481;47.600;19.682;2024-02-26T14:37:22;99442.56;;;15.23;100.00
76592;BME280;65481;47.600;19.682;2024-02-26T14:42:23;99436.72;;;15.21;100.00
76592;BME280;65481;47.600;19.682;2024-02-26T14:47:24;99440.19;;;15.16;100.00
76592;BME280;65481;47.600;19.682;2024-02-26T14:52:25;99437.97;;;15.34;100.00
76592;BME280;65481;47.600;19.682;2024-02-26T14:57:25;99441.31;;;15.44;100.00
76592;BME280;65481;47.600;19.682;2024-02-26T15:02:26;99428.31;;;15.43;100.00
76592;BME280;65481;47.600;19.682;2024-02-26T15:07:26;99426.75;;;15.37;100.00
76592;BME280;65481;47.600;19.682;2024-02-26T15:12:26;99419.13;;;15.25;100.00
76592;BME280;65481;47.600;19.682;2024-02-26T15:17:28;99422.19;;;15.13;100.00
76592;BME280;65481;47.600;19.682;2024-02-26T15:22:28;99432.66;;;14.94;100.00
76592;BME280;65481;47.600;19.682;2024-02-26T15:27:29;99428.22;;;14.84;100.00
76592;BME280;65481;47.600;19.682;2024-02-26T15:32:29;99428.00;;;14.75;100.00
76592;BME280;65481;47.600;19.682;2024-02-26T15:37:30;99423.28;;;14.57;100.00
76592;BME280;65481;47.600;19.682;2024-02-26T15:42:30;99430.25;;;14.47;100.00
76592;BME280;65481;47.600;19.682;2024-02-26T15:47:31;99443.31;;;14.28;100.00
76592;BME280;65481;47.600;19.682;2024-02-26T15:52:31;99453.72;;;14.19;100.00
76592;BME280;65481;47.600;19.682;2024-02-26T15:57:32;99450.28;;;14.08;100.00
76592;BME280;65481;47.600;19.682;2024-02-26T16:02:32;99451.41;;;13.92;100.00
76592;BME280;65481;47.600;19.682;2024-02-26T16:07:42;99448.25;;;13.74;100.00
76592;BME280;65481;47.600;19.682;2024-02-26T16:12:48;99451.72;;;13.54;100.00
76592;BME280;65481;47.600;19.682;2024-02-26T16:17:50;99452.78;;;13.43;100.00
76592;BME280;65481;47.600;19.682;2024-02-26T16:22:52;99455.91;;;13.24;100.00
76592;BME280;65481;47.600;19.682;2024-02-26T16:27:52;99456.19;;;13.17;100.00
76592;BME280;65481;47.600;19.682;2024-02-26T16:32:53;99459.88;;;13.06;100.00
76592;BME280;65481;47.600;19.682;2024-02-26T16:37:53;99465.44;;;12.99;100.00
76592;BME280;65481;47.600;19.682;2024-02-26T16:42:53;99471.78;;;12.83;100.00
76592;BME280;65481;47.600;19.682;2024-02-26T16:47:54;99480.47;;;12.73;100.00
76592;BME280;65481;47.600;19.682;2024-02-26T16:52:55;99485.22;;;12.66;100.00
76592;BME280;65481;47.600;19.682;2024-02-26T16:57:56;99488.59;;;12.56;100.00
76592;BME280;65481;47.600;19.682;2024-02-26T17:02:56;99498.66;;;12.54;100.00
76592;BME280;65481;47.600;19.682;2024-02-26T17:07:58;99510.53;;;12.41;100.00
76592;BME280;65481;47.600;19.682;2024-02-26T17:12:59;99498.56;;;12.28;100.00
76592;BME280;65481;47.600;19.682;2024-02-26T17:18:00;99504.28;;;12.15;100.00
76592;BME280;65481;47.600;19.682;2024-02-26T17:23:00;99505.31;;;12.08;100.00
76592;BME280;65481;47.600;19.682;2024-02-26T17:28:01;99509.72;;;11.97;100.00
76592;BME280;65481;47.600;19.682;2024-02-26T17:33:02;99510.69;;;11.86;100.00
76592;BME280;65481;47.600;19.682;2024-02-26T17:38:02;99518.03;;;11.79;100.00
76592;BME280;65481;47.600;19.682;2024-02-26T17:43:03;99521.44;;;11.74;100.00
76592;BME280;65481;47.600;19.682;2024-02-26T17:48:04;99530.09;;;11.70;100.00
76592;BME280;65481;47.600;19.682;2024-02-26T17:53:04;99534.59;;;11.69;100.00
76592;BME280;65481;47.600;19.682;2024-02-26T17:58:05;99538.78;;;11.65;100.00
76592;BME280;65481;47.600;19.682;2024-02-26T18:03:06;99542.78;;;11.35;100.00
76592;BME280;65481;47.600;19.682;2024-02-26T18:08:06;99539.50;;;11.23;100.00
76592;BME280;65481;47.600;19.682;2024-02-26T18:13:07;99550.00;;;11.17;100.00
76592;BME280;65481;47.600;19.682;2024-02-26T18:18:07;99554.22;;;11.18;100.00
76592;BME280;65481;47.600;19.682;2024-02-26T18:23:08;99551.81;;;11.17;100.00
76592;BME280;65481;47.600;19.682;2024-02-26T18:28:09;99561.72;;;11.04;100.00
76592;BME280;65481;47.600;19.682;2024-02-26T18:33:10;99547.53;;;10.88;100.00
76592;BME280;65481;47.600;19.682;2024-02-26T18:38:11;99560.88;;;10.77;100.00
76592;BME280;65481;47.600;19.682;2024-02-26T18:43:12;99558.28;;;10.82;100.00
76592;BME280;65481;47.600;19.682;2024-02-26T18:48:13;99558.28;;;10.82;100.00
76592;BME280;65481;47.600;19.682;2024-02-26T18:53:14;99553.81;;;10.82;100.00
76592;BME280;65481;47.600;19.682;2024-02-26T18:58:15;99573.34;;;10.81;100.00
76592;BME280;65481;47.600;19.682;2024-02-26T19:03:17;99578.47;;;10.71;100.00
76592;BME280;65481;47.600;19.682;2024-02-26T19:08:18;99580.31;;;10.48;100.00
76592;BME280;65481;47.600;19.682;2024-02-26T19:13:19;99587.00;;;10.39;100.00
76592;BME280;65481;47.600;19.682;2024-02-26T19:18:22;99592.72;;;10.36;100.00
76592;BME280;65481;47.600;19.682;2024-02-26T19:23:24;99597.69;;;10.15;100.00
76592;BME280;65481;47.600;19.682;2024-02-26T19:28:25;99603.59;;;10.05;100.00
76592;BME280;65481;47.600;19.682;2024-02-26T19:33:27;99604.75;;;9.92;100.00
76592;BME280;65481;47.600;19.682;2024-02-26T19:38:29;99609.50;;;9.95;100.00
76592;BME280;65481;47.600;19.682;2024-02-26T19:43:31;99619.31;;;9.83;100.00
76592;BME280;65481;47.600;19.682;2024-02-26T19:48:32;99622.38;;;9.92;100.00
76592;BME280;65481;47.600;19.682;2024-02-26T19:53:35;99622.28;;;9.87;100.00
76592;BME280;65481;47.600;19.682;2024-02-26T19:58:36;99619.09;;;9.84;100.00
76592;BME280;65481;47.600;19.682;2024-02-26T20:03:39;99619.00;;;9.96;100.00
76592;BME280;65481;47.600;19.682;2024-02-26T20:08:43;99637.66;;;10.07;100.00
76592;BME280;65481;47.600;19.682;2024-02-26T20:13:45;99651.56;;;10.19;100.00
76592;BME280;65481;47.600;19.682;2024-02-26T20:18:46;99658.56;;;9.96;100.00
76592;BME280;65481;47.600;19.682;2024-02-26T20:23:49;99649.44;;;9.87;100.00
76592;BME280;65481;47.600;19.682;2024-02-26T20:28:50;99657.66;;;9.74;100.00
76592;BME280;65481;47.600;19.682;2024-02-26T20:33:53;99655.94;;;9.67;100.00
76592;BME280;65481;47.600;19.682;2024-02-26T20:38:55;99670.16;;;9.66;100.00
76592;BME280;65481;47.600;19.682;2024-02-26T20:43:56;99684.91;;;9.67;100.00
76592;BME280;65481;47.600;19.682;2024-02-26T20:48:58;99682.03;;;9.69;100.00
76592;BME280;65481;47.600;19.682;2024-02-26T20:53:59;99687.09;;;9.70;100.00
76592;BME280;65481;47.600;19.682;2024-02-26T20:59:00;99693.50;;;9.75;100.00
76592;BME280;65481;47.600;19.682;2024-02-26T21:04:02;99697.91;;;9.86;100.00
76592;BME280;65481;47.600;19.682;2024-02-26T21:09:03;99709.19;;;9.98;100.00
76592;BME280;65481;47.600;19.682;2024-02-26T21:14:04;99711.13;;;10.03;100.00
76592;BME280;65481;47.600;19.682;2024-02-26T21:19:05;99705.06;;;10.03;100.00
76592;BME280;65481;47.600;19.682;2024-02-26T21:24:24;99712.19;;;10.02;100.00
76592;BME280;65481;47.600;19.682;2024-02-26T21:29:25;99719.66;;;9.93;100.00
76592;BME280;65481;47.600;19.682;2024-02-26T21:34:26;99721.25;;;9.94;100.00
76592;BME280;65481;47.600;19.682;2024-02-26T21:39:26;99726.44;;;9.89;100.00
76592;BME280;65481;47.600;19.682;2024-02-26T21:44:27;99729.09;;;9.77;100.00
76592;BME280;65481;47.600;19.682;2024-02-26T21:49:28;99730.69;;;9.49;100.00
76592;BME280;65481;47.600;19.682;2024-02-26T21:54:32;99732.50;;;9.49;100.00
76592;BME280;65481;47.600;19.682;2024-02-26T21:59:33;99723.44;;;9.45;100.00
76592;BME280;65481;47.600;19.682;2024-02-26T22:04:33;99730.69;;;9.49;100.00
76592;BME280;65481;47.600;19.682;2024-02-26T22:09:34;99725.63;;;9.48;100.00
76592;BME280;65481;47.600;19.682;2024-02-26T22:14:34;99738.00;;;9.47;100.00
76592;BME280;65481;47.600;19.682;2024-02-26T22:19:35;99752.91;;;9.30;100.00
76592;BME280;65481;47.600;19.682;2024-02-26T22:24:36;99749.47;;;9.05;100.00
76592;BME280;65481;47.600;19.682;2024-02-26T22:29:37;99734.50;;;9.18;100.00
76592;BME280;65481;47.600;19.682;2024-02-26T22:34:37;99751.41;;;9.34;100.00
76592;BME280;65481;47.600;19.682;2024-02-26T22:39:38;99744.00;;;9.31;100.00
76592;BME280;65481;47.600;19.682;2024-02-26T22:44:38;99754.03;;;9.34;100.00
76592;BME280;65481;47.600;19.682;2024-02-26T22:49:39;99756.78;;;9.39;100.00
76592;BME280;65481;47.600;19.682;2024-02-26T22:54:40;99744.53;;;9.45;100.00
76592;BME280;65481;47.600;19.682;2024-02-26T22:59:40;99755.75;;;9.52;100.00
76592;BME280;65481;47.600;19.682;2024-02-26T23:04:41;99774.38;;;9.62;100.00
76592;BME280;65481;47.600;19.682;2024-02-26T23:09:41;99785.16;;;9.61;100.00
76592;BME280;65481;47.600;19.682;2024-02-26T23:14:42;99782.22;;;9.33;100.00
76592;BME280;65481;47.600;19.682;2024-02-26T23:19:42;99791.13;;;9.32;100.00
76592;BME280;65481;47.600;19.682;2024-02-26T23:24:43;99794.09;;;9.24;100.00
76592;BME280;65481;47.600;19.682;2024-02-26T23:29:43;99798.69;;;9.17;100.00
76592;BME280;65481;47.600;19.682;2024-02-26T23:34:44;99802.09;;;9.05;100.00
76592;BME280;65481;47.600;19.682;2024-02-26T23:39:45;99799.38;;;9.00;100.00
76592;BME280;65481;47.600;19.682;2024-02-26T23:44:46;99806.44;;;8.88;100.00
76592;BME280;65481;47.600;19.682;2024-02-26T23:49:47;99810.44;;;8.78;100.00
76592;BME280;65481;47.600;19.682;2024-02-26T23:54:47;99821.06;;;8.72;100.00
76592;BME280;65481;47.600;19.682;2024-02-26T23:59:48;99822.78;;;8.78;100.00
